createdAt,value
2018-01-14T00:00:03.551Z,1013.85
2018-01-14T00:01:13.772Z,1013.85
2018-01-14T00:02:23.558Z,1013.87
2018-01-14T00:03:32.747Z,1013.86
2018-01-14T00:04:41.984Z,1013.83
2018-01-14T00:05:52.074Z,1013.83
2018-01-14T00:07:02.098Z,1013.79
2018-01-14T00:08:11.555Z,1013.81
2018-01-14T00:09:21.331Z,1013.76
2018-01-14T00:10:30.597Z,1013.79
2018-01-14T00:11:39.791Z,1013.77
2018-01-14T00:12:49.524Z,1013.74
2018-01-14T00:13:58.722Z,1013.69
2018-01-14T00:15:08.724Z,1013.69
2018-01-14T00:16:18.487Z,1013.65
2018-01-14T00:17:27.676Z,1013.65
2018-01-14T00:18:37.132Z,1013.62
2018-01-14T00:19:46.326Z,1013.61
2018-01-14T00:20:55.263Z,1013.64
2018-01-14T00:22:04.989Z,1013.64
2018-01-14T00:23:14.446Z,1013.63
2018-01-14T00:24:23.899Z,1013.64
2018-01-14T00:25:33.355Z,1013.62
2018-01-14T00:26:42.839Z,1013.64
2018-01-14T00:27:52.643Z,1013.58
2018-01-14T00:29:01.577Z,1013.6
2018-01-14T00:30:11.326Z,1013.63
2018-01-14T00:31:21.428Z,1013.6
2018-01-14T00:32:30.898Z,1013.6
2018-01-14T00:33:40.364Z,1013.62
2018-01-14T00:34:50.116Z,1013.62
2018-01-14T00:35:59.855Z,1013.6
2018-01-14T00:37:09.051Z,1013.58
2018-01-14T00:38:18.247Z,1013.56
2018-01-14T00:39:27.985Z,1013.55
2018-01-14T00:40:37.706Z,1013.51
2018-01-14T00:41:47.694Z,1013.54
2018-01-14T00:42:57.160Z,1013.5
2018-01-14T00:44:06.094Z,1013.53
2018-01-14T00:45:15.546Z,1013.48
2018-01-14T00:46:25.002Z,1013.53
2018-01-14T00:47:34.200Z,1013.55
2018-01-14T00:48:43.391Z,1013.5
2018-01-14T00:49:52.337Z,1013.55
2018-01-14T00:51:02.065Z,1013.53
2018-01-14T00:52:11.529Z,1013.53
2018-01-14T00:53:21.016Z,1013.59
2018-01-14T00:54:30.768Z,1013.57
2018-01-14T00:55:39.436Z,1013.54
2018-01-14T00:56:48.629Z,1013.55
2018-01-14T00:57:58.088Z,1013.57
2018-01-14T00:59:07.548Z,1013.52
2018-01-14T01:00:17.011Z,1013.55
2018-01-14T01:01:26.747Z,1013.52
2018-01-14T01:02:36.472Z,1013.52
2018-01-14T01:03:46.457Z,1013.53
2018-01-14T01:04:55.938Z,1013.56
2018-01-14T01:06:05.398Z,1013.55
2018-01-14T01:07:15.119Z,1013.51
2018-01-14T01:08:24.847Z,1013.57
2018-01-14T01:09:34.307Z,1013.55
2018-01-14T01:10:43.794Z,1013.56
2018-01-14T01:11:53.788Z,1013.55
2018-01-14T01:13:02.737Z,1013.57
2018-01-14T01:14:12.455Z,1013.56
2018-01-14T01:15:22.439Z,1013.54
2018-01-14T01:16:31.948Z,1013.55
2018-01-14T01:17:41.934Z,1013.52
2018-01-14T01:18:51.136Z,1013.54
2018-01-14T01:20:00.878Z,1013.55
2018-01-14T01:21:10.071Z,1013.55
2018-01-14T01:22:19.801Z,1013.54
2018-01-14T01:23:29.281Z,1013.53
2018-01-14T01:24:38.213Z,1013.52
2018-01-14T01:25:47.935Z,1013.5
2018-01-14T01:26:57.658Z,1013.48
2018-01-14T01:28:07.375Z,1013.49
2018-01-14T01:29:16.849Z,1013.5
2018-01-14T01:30:26.304Z,1013.48
2018-01-14T01:31:35.496Z,1013.5
2018-01-14T01:32:44.961Z,1013.51
2018-01-14T01:33:53.898Z,1013.53
2018-01-14T01:35:03.620Z,1013.54
2018-01-14T01:36:13.092Z,1013.54
2018-01-14T01:37:22.547Z,1013.54
2018-01-14T01:38:31.995Z,1013.55
2018-01-14T01:39:41.194Z,1013.57
2018-01-14T01:40:51.182Z,1013.57
2018-01-14T01:42:00.899Z,1013.61
2018-01-14T01:43:10.355Z,1013.6
2018-01-14T01:44:20.078Z,1013.59
2018-01-14T01:45:29.950Z,1013.57
2018-01-14T01:46:39.674Z,1013.58
2018-01-14T01:47:49.665Z,1013.57
2018-01-14T01:48:59.123Z,1013.52
2018-01-14T01:50:08.321Z,1013.5
2018-01-14T01:51:18.308Z,1013.46
2018-01-14T01:52:27.496Z,1013.49
2018-01-14T01:53:37.232Z,1013.5
2018-01-14T01:54:46.722Z,1013.48
2018-01-14T01:55:55.924Z,1013.42
2018-01-14T01:57:05.376Z,1013.44
2018-01-14T01:58:15.129Z,1013.4
2018-01-14T01:59:24.893Z,1013.44
2018-01-14T02:00:34.676Z,1013.45
2018-01-14T02:01:44.425Z,1013.43
2018-01-14T02:02:53.899Z,1013.44
2018-01-14T02:04:03.662Z,1013.43
2018-01-14T02:05:13.113Z,1013.44
2018-01-14T02:06:23.099Z,1013.4
2018-01-14T02:07:32.297Z,1013.42
2018-01-14T02:08:41.772Z,1013.38
2018-01-14T02:09:50.442Z,1013.38
2018-01-14T02:11:00.438Z,1013.42
2018-01-14T02:12:09.642Z,1013.4
2018-01-14T02:13:19.093Z,1013.39
2018-01-14T02:14:28.558Z,1013.38
2018-01-14T02:15:38.277Z,1013.33
2018-01-14T02:16:47.479Z,1013.35
2018-01-14T02:17:57.193Z,1013.35
2018-01-14T02:19:07.184Z,1013.32
2018-01-14T02:20:16.905Z,1013.33
2018-01-14T02:21:26.364Z,1013.36
2018-01-14T02:22:35.826Z,1013.37
2018-01-14T02:23:45.629Z,1013.37
2018-01-14T02:24:54.823Z,1013.37
2018-01-14T02:26:04.353Z,1013.4
2018-01-14T02:27:13.845Z,1013.38
2018-01-14T02:28:23.842Z,1013.42
2018-01-14T02:29:33.328Z,1013.38
2018-01-14T02:30:42.784Z,1013.39
2018-01-14T02:31:52.667Z,1013.41
2018-01-14T02:33:02.143Z,1013.48
2018-01-14T02:34:11.645Z,1013.42
2018-01-14T02:35:21.371Z,1013.44
2018-01-14T02:36:30.834Z,1013.45
2018-01-14T02:37:40.825Z,1013.49
2018-01-14T02:38:50.276Z,1013.46
2018-01-14T02:39:59.987Z,1013.49
2018-01-14T02:41:09.480Z,1013.44
2018-01-14T02:42:19.195Z,1013.48
2018-01-14T02:43:28.981Z,1013.44
2018-01-14T02:44:38.438Z,1013.48
2018-01-14T02:45:48.418Z,1013.48
2018-01-14T02:46:58.143Z,1013.46
2018-01-14T02:48:07.485Z,1013.46
2018-01-14T02:49:17.228Z,1013.44
2018-01-14T02:50:26.969Z,1013.45
2018-01-14T02:51:35.932Z,1013.49
2018-01-14T02:52:45.122Z,1013.46
2018-01-14T02:53:54.590Z,1013.5
2018-01-14T02:55:04.055Z,1013.46
2018-01-14T02:56:13.770Z,1013.48
2018-01-14T02:57:23.238Z,1013.46
2018-01-14T02:58:32.696Z,1013.49
2018-01-14T02:59:42.423Z,1013.5
2018-01-14T03:00:52.165Z,1013.49
2018-01-14T03:02:01.686Z,1013.5
2018-01-14T03:03:11.411Z,1013.54
2018-01-14T03:04:20.601Z,1013.5
2018-01-14T03:05:30.211Z,1013.49
2018-01-14T03:06:39.930Z,1013.48
2018-01-14T03:07:49.656Z,1013.52
2018-01-14T03:08:59.118Z,1013.49
2018-01-14T03:10:08.891Z,1013.51
2018-01-14T03:11:18.360Z,1013.52
2018-01-14T03:12:28.155Z,1013.46
2018-01-14T03:13:37.684Z,1013.5
2018-01-14T03:14:47.140Z,1013.43
2018-01-14T03:15:56.072Z,1013.39
2018-01-14T03:17:05.935Z,1013.33
2018-01-14T03:18:15.660Z,1013.39
2018-01-14T03:19:25.635Z,1013.41
2018-01-14T03:20:35.662Z,1013.35
2018-01-14T03:21:45.807Z,1013.34
2018-01-14T03:22:55.580Z,1013.34
2018-01-14T03:24:05.301Z,1013.36
2018-01-14T03:25:14.817Z,1013.27
2018-01-14T03:26:24.025Z,1013.3
2018-01-14T03:27:33.736Z,1013.25
2018-01-14T03:28:43.611Z,1013.22
2018-01-14T03:29:53.334Z,1013.27
2018-01-14T03:31:02.527Z,1013.29
2018-01-14T03:32:12.516Z,1013.26
2018-01-14T03:33:21.966Z,1013.28
2018-01-14T03:34:31.699Z,1013.34
2018-01-14T03:35:41.418Z,1013.26
2018-01-14T03:36:50.348Z,1013.29
2018-01-14T03:38:00.060Z,1013.31
2018-01-14T03:39:09.778Z,1013.27
2018-01-14T03:40:19.500Z,1013.25
2018-01-14T03:41:29.484Z,1013.26
2018-01-14T03:42:39.216Z,1013.24
2018-01-14T03:43:48.939Z,1013.29
2018-01-14T03:44:58.931Z,1013.26
2018-01-14T03:46:08.536Z,1013.28
2018-01-14T03:47:18.250Z,1013.31
2018-01-14T03:48:27.443Z,1013.32
2018-01-14T03:49:36.902Z,1013.3
2018-01-14T03:50:46.613Z,1013.29
2018-01-14T03:51:56.332Z,1013.3
2018-01-14T03:53:05.578Z,1013.32
2018-01-14T03:54:15.304Z,1013.3
2018-01-14T03:55:25.014Z,1013.32
2018-01-14T03:56:34.999Z,1013.3
2018-01-14T03:57:44.500Z,1013.3
2018-01-14T03:58:53.966Z,1013.31
2018-01-14T04:00:03.707Z,1013.33
2018-01-14T04:01:13.221Z,1013.34
2018-01-14T04:02:22.948Z,1013.31
2018-01-14T04:03:32.562Z,1013.33
2018-01-14T04:04:42.019Z,1013.36
2018-01-14T04:05:51.792Z,1013.36
2018-01-14T04:07:01.585Z,1013.32
2018-01-14T04:08:11.569Z,1013.36
2018-01-14T04:09:21.559Z,1013.34
2018-01-14T04:10:31.287Z,1013.36
2018-01-14T04:11:41.007Z,1013.36
2018-01-14T04:12:50.715Z,1013.37
2018-01-14T04:14:00.456Z,1013.33
2018-01-14T04:15:09.906Z,1013.32
2018-01-14T04:16:19.106Z,1013.32
2018-01-14T04:17:28.826Z,1013.32
2018-01-14T04:18:38.284Z,1013.31
2018-01-14T04:19:48.001Z,1013.32
2018-01-14T04:20:57.876Z,1013.27
2018-01-14T04:22:07.611Z,1013.28
2018-01-14T04:23:17.335Z,1013.25
2018-01-14T04:24:27.334Z,1013.25
2018-01-14T04:25:37.067Z,1013.24
2018-01-14T04:26:46.521Z,1013.23
2018-01-14T04:27:55.972Z,1013.18
2018-01-14T04:29:05.150Z,1013.21
2018-01-14T04:30:14.697Z,1013.25
2018-01-14T04:31:24.164Z,1013.18
2018-01-14T04:32:33.614Z,1013.17
2018-01-14T04:33:42.810Z,1013.19
2018-01-14T04:34:52.535Z,1013.17
2018-01-14T04:36:02.290Z,1013.18
2018-01-14T04:37:12.409Z,1013.15
2018-01-14T04:38:22.124Z,1013.11
2018-01-14T04:39:31.835Z,1013.12
2018-01-14T04:40:41.806Z,1013.15
2018-01-14T04:41:51.258Z,1013.12
2018-01-14T04:43:00.716Z,1013.09
2018-01-14T04:44:10.446Z,1013.12
2018-01-14T04:45:19.896Z,1013.15
2018-01-14T04:46:29.394Z,1013.15
2018-01-14T04:47:39.125Z,1013.18
2018-01-14T04:48:48.885Z,1013.16
2018-01-14T04:49:58.073Z,1013.14
2018-01-14T04:51:07.267Z,1013.14
2018-01-14T04:52:17.525Z,1013.19
2018-01-14T04:53:27.005Z,1013.17
2018-01-14T04:54:36.503Z,1013.15
2018-01-14T04:55:46.111Z,1013.15
2018-01-14T04:56:55.305Z,1013.13
2018-01-14T04:58:04.762Z,1013.14
2018-01-14T04:59:13.956Z,1013.09
2018-01-14T05:00:23.416Z,1013.08
2018-01-14T05:01:32.344Z,1013.08
2018-01-14T05:02:42.064Z,1013.01
2018-01-14T05:03:51.790Z,1013.03
2018-01-14T05:05:01.251Z,1012.99
2018-01-14T05:06:10.759Z,1012.96
2018-01-14T05:07:20.741Z,1012.96
2018-01-14T05:08:30.195Z,1013
2018-01-14T05:09:39.378Z,1012.99
2018-01-14T05:10:48.572Z,1013.01
2018-01-14T05:11:58.038Z,1013.02
2018-01-14T05:13:07.919Z,1013.06
2018-01-14T05:14:17.372Z,1013.12
2018-01-14T05:15:27.100Z,1013.12
2018-01-14T05:16:36.812Z,1013.13
2018-01-14T05:17:46.003Z,1013.15
2018-01-14T05:18:55.730Z,1013.13
2018-01-14T05:20:05.190Z,1013.15
2018-01-14T05:21:14.919Z,1013.16
2018-01-14T05:22:24.375Z,1013.18
2018-01-14T05:23:33.604Z,1013.14
2018-01-14T05:24:43.730Z,1013.19
2018-01-14T05:25:52.923Z,1013.22
2018-01-14T05:27:02.394Z,1013.2
2018-01-14T05:28:11.843Z,1013.17
2018-01-14T05:29:21.290Z,1013.17
2018-01-14T05:30:31.009Z,1013.18
2018-01-14T05:31:40.458Z,1013.12
2018-01-14T05:32:49.924Z,1013.11
2018-01-14T05:33:59.374Z,1013.11
2018-01-14T05:35:09.350Z,1013.08
2018-01-14T05:36:18.267Z,1013.05
2018-01-14T05:37:27.460Z,1013.06
2018-01-14T05:38:37.179Z,1013.07
2018-01-14T05:39:46.637Z,1013.04
2018-01-14T05:40:55.834Z,1013.02
2018-01-14T05:42:05.021Z,1013.07
2018-01-14T05:43:14.208Z,1013.08
2018-01-14T05:44:23.666Z,1013.03
2018-01-14T05:45:33.659Z,1013
2018-01-14T05:46:43.644Z,1013.03
2018-01-14T05:47:53.360Z,1013.01
2018-01-14T05:49:03.074Z,1013
2018-01-14T05:50:12.789Z,1013.03
2018-01-14T05:51:22.238Z,1013.04
2018-01-14T05:52:32.230Z,1013.01
2018-01-14T05:53:41.679Z,1012.97
2018-01-14T05:54:51.144Z,1012.98
2018-01-14T05:56:00.859Z,1013.03
2018-01-14T05:57:10.076Z,1013.01
2018-01-14T05:58:19.266Z,1013.05
2018-01-14T05:59:29.136Z,1013.07
2018-01-14T06:00:38.594Z,1013.06
2018-01-14T06:01:48.054Z,1013.07
2018-01-14T06:02:57.514Z,1013.04
2018-01-14T06:04:07.496Z,1013.02
2018-01-14T06:05:16.699Z,1013.08
2018-01-14T06:06:26.155Z,1013.04
2018-01-14T06:07:35.599Z,1013.06
2018-01-14T06:08:45.311Z,1012.96
2018-01-14T06:09:55.282Z,1013.05
2018-01-14T06:11:04.473Z,1013.03
2018-01-14T06:12:13.673Z,1013.05
2018-01-14T06:13:22.869Z,1013.06
2018-01-14T06:14:32.591Z,1013.07
2018-01-14T06:15:42.047Z,1013.04
2018-01-14T06:16:51.507Z,1013.1
2018-01-14T06:18:00.970Z,1013.12
2018-01-14T06:19:10.695Z,1013.15
2018-01-14T06:20:20.417Z,1013.19
2018-01-14T06:21:30.204Z,1013.14
2018-01-14T06:22:39.658Z,1013.17
2018-01-14T06:23:49.103Z,1013.22
2018-01-14T06:24:58.828Z,1013.11
2018-01-14T06:26:08.303Z,1013.17
2018-01-14T06:27:17.753Z,1013.12
2018-01-14T06:28:27.622Z,1013.12
2018-01-14T06:29:36.814Z,1013.1
2018-01-14T06:30:46.261Z,1013.12
2018-01-14T06:31:55.991Z,1013.05
2018-01-14T06:33:05.443Z,1013.04
2018-01-14T06:34:15.164Z,1013.05
2018-01-14T06:35:24.608Z,1013.03
2018-01-14T06:36:34.072Z,1013.03
2018-01-14T06:37:43.807Z,1013.02
2018-01-14T06:38:52.731Z,1012.99
2018-01-14T06:40:01.656Z,1013.01
2018-01-14T06:41:11.108Z,1013.01
2018-01-14T06:42:20.559Z,1013
2018-01-14T06:43:29.747Z,1013.02
2018-01-14T06:44:39.458Z,1013.06
2018-01-14T06:45:48.930Z,1013.07
2018-01-14T06:46:58.391Z,1012.99
2018-01-14T06:48:08.376Z,1012.98
2018-01-14T06:49:18.360Z,1013.01
2018-01-14T06:50:28.078Z,1013.01
2018-01-14T06:51:37.548Z,1013.04
2018-01-14T06:52:47.270Z,1013.01
2018-01-14T06:53:56.455Z,1012.99
2018-01-14T06:55:06.439Z,1013.02
2018-01-14T06:56:15.925Z,1013.04
2018-01-14T06:57:25.636Z,1013.03
2018-01-14T06:58:35.356Z,1012.99
2018-01-14T06:59:45.077Z,1013.03
2018-01-14T07:00:54.271Z,1013.05
2018-01-14T07:02:03.851Z,1013.01
2018-01-14T07:03:13.571Z,1013.06
2018-01-14T07:04:23.034Z,1013.04
2018-01-14T07:05:32.747Z,1013.04
2018-01-14T07:06:42.212Z,1013.03
2018-01-14T07:07:51.971Z,1013.02
2018-01-14T07:09:01.696Z,1013.01
2018-01-14T07:10:11.157Z,1012.98
2018-01-14T07:11:20.634Z,1013.01
2018-01-14T07:12:30.088Z,1013.01
2018-01-14T07:13:39.824Z,1013.07
2018-01-14T07:14:49.289Z,1013.07
2018-01-14T07:15:59.006Z,1013.05
2018-01-14T07:17:08.728Z,1013.08
2018-01-14T07:18:18.724Z,1013.12
2018-01-14T07:19:28.183Z,1013.11
2018-01-14T07:20:37.366Z,1013.14
2018-01-14T07:21:47.093Z,1013.14
2018-01-14T07:22:56.291Z,1013.15
2018-01-14T07:24:06.066Z,1013.1
2018-01-14T07:25:15.527Z,1013.1
2018-01-14T07:26:24.723Z,1013.1
2018-01-14T07:27:33.922Z,1013.09
2018-01-14T07:28:43.383Z,1013.13
2018-01-14T07:29:53.110Z,1013.12
2018-01-14T07:31:02.846Z,1013.11
2018-01-14T07:32:12.564Z,1013.17
2018-01-14T07:33:22.277Z,1013.14
2018-01-14T07:34:31.606Z,1013.17
2018-01-14T07:35:41.553Z,1013.17
2018-01-14T07:36:51.545Z,1013.17
2018-01-14T07:38:01.009Z,1013.16
2018-01-14T07:39:10.564Z,1013.17
2018-01-14T07:40:20.294Z,1013.13
2018-01-14T07:41:29.520Z,1013.17
2018-01-14T07:42:38.809Z,1013.19
2018-01-14T07:43:48.270Z,1013.24
2018-01-14T07:44:57.726Z,1013.26
2018-01-14T07:46:06.974Z,1013.24
2018-01-14T07:47:16.711Z,1013.24
2018-01-14T07:48:26.171Z,1013.25
2018-01-14T07:49:35.883Z,1013.28
2018-01-14T07:50:44.810Z,1013.29
2018-01-14T07:51:54.791Z,1013.3
2018-01-14T07:53:04.564Z,1013.28
2018-01-14T07:54:13.755Z,1013.26
2018-01-14T07:55:23.457Z,1013.27
2018-01-14T07:56:33.174Z,1013.31
2018-01-14T07:57:43.181Z,1013.29
2018-01-14T07:58:53.164Z,1013.31
2018-01-14T08:00:02.893Z,1013.33
2018-01-14T08:01:12.616Z,1013.36
2018-01-14T08:02:22.354Z,1013.35
2018-01-14T08:03:31.807Z,1013.4
2018-01-14T08:04:41.523Z,1013.35
2018-01-14T08:05:51.239Z,1013.37
2018-01-14T08:07:00.955Z,1013.36
2018-01-14T08:08:10.149Z,1013.38
2018-01-14T08:09:19.083Z,1013.39
2018-01-14T08:10:28.543Z,1013.43
2018-01-14T08:11:38.319Z,1013.42
2018-01-14T08:12:48.030Z,1013.45
2018-01-14T08:13:57.741Z,1013.52
2018-01-14T08:15:06.672Z,1013.47
2018-01-14T08:16:15.596Z,1013.51
2018-01-14T08:17:24.793Z,1013.56
2018-01-14T08:18:34.251Z,1013.52
2018-01-14T08:19:43.776Z,1013.51
2018-01-14T08:20:53.506Z,1013.52
2018-01-14T08:22:02.966Z,1013.46
2018-01-14T08:23:12.415Z,1013.47
2018-01-14T08:24:22.129Z,1013.51
2018-01-14T08:25:31.650Z,1013.47
2018-01-14T08:26:41.113Z,1013.48
2018-01-14T08:27:50.568Z,1013.52
2018-01-14T08:29:00.574Z,1013.48
2018-01-14T08:30:10.553Z,1013.47
2018-01-14T08:31:20.282Z,1013.52
2018-01-14T08:32:30.023Z,1013.51
2018-01-14T08:33:39.474Z,1013.5
2018-01-14T08:34:49.202Z,1013.47
2018-01-14T08:35:59.244Z,1013.45
2018-01-14T08:37:08.717Z,1013.48
2018-01-14T08:38:18.434Z,1013.47
2018-01-14T08:39:28.161Z,1013.44
2018-01-14T08:40:38.147Z,1013.47
2018-01-14T08:41:47.614Z,1013.47
2018-01-14T08:42:57.334Z,1013.42
2018-01-14T08:44:06.799Z,1013.42
2018-01-14T08:45:16.526Z,1013.41
2018-01-14T08:46:25.703Z,1013.42
2018-01-14T08:47:35.431Z,1013.37
2018-01-14T08:48:45.436Z,1013.36
2018-01-14T08:49:55.152Z,1013.32
2018-01-14T08:51:05.160Z,1013.35
2018-01-14T08:52:14.621Z,1013.33
2018-01-14T08:53:24.099Z,1013.33
2018-01-14T08:54:33.588Z,1013.31
2018-01-14T08:55:43.049Z,1013.28
2018-01-14T08:56:52.498Z,1013.3
2018-01-14T08:58:02.284Z,1013.33
2018-01-14T08:59:12.318Z,1013.36
2018-01-14T09:00:22.311Z,1013.37
2018-01-14T09:01:31.499Z,1013.36
2018-01-14T09:02:40.480Z,1013.39
2018-01-14T09:03:50.289Z,1013.37
2018-01-14T09:05:00.076Z,1013.4
2018-01-14T09:06:09.559Z,1013.37
2018-01-14T09:07:18.757Z,1013.36
2018-01-14T09:08:27.941Z,1013.4
2018-01-14T09:09:37.665Z,1013.37
2018-01-14T09:10:47.146Z,1013.42
2018-01-14T09:11:56.877Z,1013.46
2018-01-14T09:13:06.601Z,1013.42
2018-01-14T09:14:15.802Z,1013.44
2018-01-14T09:15:25.256Z,1013.38
2018-01-14T09:16:34.708Z,1013.44
2018-01-14T09:17:44.155Z,1013.39
2018-01-14T09:18:53.087Z,1013.4
2018-01-14T09:20:02.317Z,1013.4
2018-01-14T09:21:11.793Z,1013.39
2018-01-14T09:22:20.990Z,1013.34
2018-01-14T09:23:30.447Z,1013.38
2018-01-14T09:24:40.108Z,1013.4
2018-01-14T09:25:49.838Z,1013.38
2018-01-14T09:26:59.025Z,1013.39
2018-01-14T09:28:07.978Z,1013.45
2018-01-14T09:29:17.458Z,1013.44
2018-01-14T09:30:27.182Z,1013.44
2018-01-14T09:31:37.216Z,1013.47
2018-01-14T09:32:46.451Z,1013.4
2018-01-14T09:33:56.170Z,1013.41
2018-01-14T09:35:05.900Z,1013.37
2018-01-14T09:36:15.626Z,1013.34
2018-01-14T09:37:25.082Z,1013.3
2018-01-14T09:38:34.893Z,1013.35
2018-01-14T09:39:44.959Z,1013.36
2018-01-14T09:40:54.819Z,1013.32
2018-01-14T09:42:04.070Z,1013.29
2018-01-14T09:43:13.844Z,1013.34
2018-01-14T09:44:23.313Z,1013.35
2018-01-14T09:45:32.771Z,1013.39
2018-01-14T09:46:41.990Z,1013.39
2018-01-14T09:47:51.761Z,1013.4
2018-01-14T09:49:01.761Z,1013.42
2018-01-14T09:50:11.256Z,1013.38
2018-01-14T09:51:20.990Z,1013.36
2018-01-14T09:52:30.711Z,1013.39
2018-01-14T09:53:40.444Z,1013.33
2018-01-14T09:54:50.437Z,1013.3
2018-01-14T09:55:59.952Z,1013.32
2018-01-14T09:57:09.407Z,1013.28
2018-01-14T09:58:18.632Z,1013.34
2018-01-14T09:59:28.619Z,1013.39
2018-01-14T10:00:38.336Z,1013.37
2018-01-14T10:01:48.076Z,1013.38
2018-01-14T10:02:57.791Z,1013.44
2018-01-14T10:04:07.774Z,1013.39
2018-01-14T10:05:17.502Z,1013.38
2018-01-14T10:06:26.986Z,1013.33
2018-01-14T10:07:36.695Z,1013.37
2018-01-14T10:08:46.437Z,1013.35
2018-01-14T10:09:55.910Z,1013.37
2018-01-14T10:11:05.360Z,1013.35
2018-01-14T10:12:15.401Z,1013.29
2018-01-14T10:13:24.601Z,1013.25
2018-01-14T10:14:34.088Z,1013.32
2018-01-14T10:15:43.285Z,1013.32
2018-01-14T10:16:52.209Z,1013.34
2018-01-14T10:18:01.747Z,1013.27
2018-01-14T10:19:11.474Z,1013.33
2018-01-14T10:20:21.200Z,1013.31
2018-01-14T10:21:30.687Z,1013.31
2018-01-14T10:22:39.887Z,1013.27
2018-01-14T10:23:49.411Z,1013.27
2018-01-14T10:24:58.598Z,1013.3
2018-01-14T10:26:08.597Z,1013.27
2018-01-14T10:27:18.330Z,1013.24
2018-01-14T10:28:27.870Z,1013.23
2018-01-14T10:29:37.606Z,1013.23
2018-01-14T10:30:46.809Z,1013.22
2018-01-14T10:31:56.575Z,1013.26
2018-01-14T10:33:05.778Z,1013.16
2018-01-14T10:34:15.240Z,1013.17
2018-01-14T10:35:24.717Z,1013.18
2018-01-14T10:36:34.505Z,1013.18
2018-01-14T10:37:43.964Z,1013.19
2018-01-14T10:38:53.735Z,1013.15
2018-01-14T10:40:03.205Z,1013.18
2018-01-14T10:41:12.921Z,1013.17
2018-01-14T10:42:22.105Z,1013.2
2018-01-14T10:43:31.827Z,1013.13
2018-01-14T10:44:40.558Z,1013.17
2018-01-14T10:45:50.009Z,1013.07
2018-01-14T10:46:59.772Z,1013.11
2018-01-14T10:48:09.284Z,1013.12
2018-01-14T10:49:19.004Z,1013.03
2018-01-14T10:50:28.489Z,1013.11
2018-01-14T10:51:38.480Z,1013.1
2018-01-14T10:52:48.472Z,1013.11
2018-01-14T10:53:57.677Z,1013.07
2018-01-14T10:55:07.403Z,1013.05
2018-01-14T10:56:16.864Z,1013.13
2018-01-14T10:57:26.655Z,1013.08
2018-01-14T10:58:36.866Z,1013.1
2018-01-14T10:59:46.099Z,1013.05
2018-01-14T11:00:55.568Z,1013.08
2018-01-14T11:02:05.512Z,1013.04
2018-01-14T11:03:15.515Z,1012.97
2018-01-14T11:04:25.024Z,1012.97
2018-01-14T11:05:34.346Z,1012.95
2018-01-14T11:06:43.876Z,1012.97
2018-01-14T11:07:53.472Z,1012.97
2018-01-14T11:09:04.699Z,1012.97
2018-01-14T11:10:14.932Z,1012.99
2018-01-14T11:11:24.742Z,1012.91
2018-01-14T11:12:34.592Z,1012.94
2018-01-14T11:13:43.844Z,1013
2018-01-14T11:14:53.635Z,1013
2018-01-14T11:16:02.890Z,1012.97
2018-01-14T11:17:12.394Z,1013
2018-01-14T11:18:21.602Z,1013.01
2018-01-14T11:19:31.322Z,1013.05
2018-01-14T11:20:41.387Z,1013.04
2018-01-14T11:21:51.161Z,1013.09
2018-01-14T11:23:00.361Z,1013.11
2018-01-14T11:24:09.551Z,1013.01
2018-01-14T11:25:19.010Z,1013.04
2018-01-14T11:26:28.479Z,1012.95
2018-01-14T11:27:38.460Z,1013.01
2018-01-14T11:28:47.923Z,1012.94
2018-01-14T11:29:57.645Z,1012.89
2018-01-14T11:31:07.654Z,1012.89
2018-01-14T11:32:17.118Z,1012.86
2018-01-14T11:33:26.072Z,1012.87
2018-01-14T11:34:35.800Z,1012.81
2018-01-14T11:35:45.517Z,1012.84
2018-01-14T11:36:54.977Z,1012.84
2018-01-14T11:38:04.165Z,1012.81
2018-01-14T11:39:13.622Z,1012.83
2018-01-14T11:40:23.092Z,1012.87
2018-01-14T11:41:32.910Z,1012.83
2018-01-14T11:42:42.705Z,1012.9
2018-01-14T11:43:51.907Z,1012.87
2018-01-14T11:45:01.374Z,1012.88
2018-01-14T11:46:11.384Z,1012.88
2018-01-14T11:47:20.843Z,1012.8
2018-01-14T11:48:30.028Z,1012.77
2018-01-14T11:49:38.950Z,1012.82
2018-01-14T11:50:48.945Z,1012.76
2018-01-14T11:51:58.187Z,1012.76
2018-01-14T11:53:07.416Z,1012.77
2018-01-14T11:54:17.222Z,1012.76
2018-01-14T11:55:27.279Z,1012.75
2018-01-14T11:56:37.043Z,1012.75
2018-01-14T11:57:46.759Z,1012.69
2018-01-14T11:58:56.284Z,1012.74
2018-01-14T12:00:06.034Z,1012.69
2018-01-14T12:01:14.988Z,1012.72
2018-01-14T12:02:24.521Z,1012.72
2018-01-14T12:03:34.301Z,1012.66
2018-01-14T12:04:43.806Z,1012.67
2018-01-14T12:05:53.276Z,1012.62
2018-01-14T12:07:02.731Z,1012.59
2018-01-14T12:08:12.184Z,1012.53
2018-01-14T12:09:21.920Z,1012.56
2018-01-14T12:10:31.640Z,1012.56
2018-01-14T12:11:41.101Z,1012.56
2018-01-14T12:12:50.865Z,1012.54
2018-01-14T12:14:00.897Z,1012.52
2018-01-14T12:15:10.371Z,1012.52
2018-01-14T12:16:20.363Z,1012.49
2018-01-14T12:17:29.828Z,1012.49
2018-01-14T12:18:39.548Z,1012.56
2018-01-14T12:19:49.005Z,1012.54
2018-01-14T12:20:58.716Z,1012.52
2018-01-14T12:22:07.913Z,1012.62
2018-01-14T12:23:17.752Z,1012.55
2018-01-14T12:24:27.748Z,1012.54
2018-01-14T12:25:37.460Z,1012.56
2018-01-14T12:26:46.918Z,1012.58
2018-01-14T12:27:56.445Z,1012.6
2018-01-14T12:29:05.698Z,1012.61
2018-01-14T12:30:15.681Z,1012.58
2018-01-14T12:31:25.399Z,1012.54
2018-01-14T12:32:34.582Z,1012.59
2018-01-14T12:33:44.295Z,1012.62
2018-01-14T12:34:53.749Z,1012.6
2018-01-14T12:36:03.208Z,1012.6
2018-01-14T12:37:12.705Z,1012.6
2018-01-14T12:38:22.699Z,1012.56
2018-01-14T12:39:32.166Z,1012.56
2018-01-14T12:40:41.645Z,1012.51
2018-01-14T12:41:50.872Z,1012.5
2018-01-14T12:43:00.639Z,1012.47
2018-01-14T12:44:10.396Z,1012.47
2018-01-14T12:45:20.123Z,1012.45
2018-01-14T12:46:29.581Z,1012.48
2018-01-14T12:47:39.039Z,1012.45
2018-01-14T12:48:48.765Z,1012.46
2018-01-14T12:49:58.233Z,1012.45
2018-01-14T12:51:08.233Z,1012.47
2018-01-14T12:52:17.961Z,1012.4
2018-01-14T12:53:27.153Z,1012.43
2018-01-14T12:54:36.347Z,1012.41
2018-01-14T12:55:46.081Z,1012.44
2018-01-14T12:56:55.542Z,1012.4
2018-01-14T12:58:04.467Z,1012.41
2018-01-14T12:59:14.450Z,1012.4
2018-01-14T13:00:24.175Z,1012.36
2018-01-14T13:01:33.904Z,1012.34
2018-01-14T13:02:43.104Z,1012.29
2018-01-14T13:03:52.299Z,1012.3
2018-01-14T13:05:01.747Z,1012.27
2018-01-14T13:06:11.207Z,1012.25
2018-01-14T13:07:20.396Z,1012.29
2018-01-14T13:08:29.875Z,1012.27
2018-01-14T13:09:39.327Z,1012.24
2018-01-14T13:10:48.259Z,1012.21
2018-01-14T13:11:57.189Z,1012.22
2018-01-14T13:13:06.392Z,1012.28
2018-01-14T13:14:15.586Z,1012.23
2018-01-14T13:15:25.566Z,1012.23
2018-01-14T13:16:35.125Z,1012.25
2018-01-14T13:17:44.089Z,1012.3
2018-01-14T13:18:53.681Z,1012.34
2018-01-14T13:20:02.882Z,1012.36
2018-01-14T13:21:12.651Z,1012.34
2018-01-14T13:22:22.123Z,1012.34
2018-01-14T13:23:31.875Z,1012.31
2018-01-14T13:24:41.344Z,1012.29
2018-01-14T13:25:51.369Z,1012.21
2018-01-14T13:27:01.089Z,1012.25
2018-01-14T13:28:11.097Z,1012.24
2018-01-14T13:29:20.584Z,1012.21
2018-01-14T13:30:30.401Z,1012.21
2018-01-14T13:31:40.396Z,1012.17
2018-01-14T13:32:49.608Z,1012.19
2018-01-14T13:33:59.131Z,1012.22
2018-01-14T13:35:08.596Z,1012.21
2018-01-14T13:36:17.819Z,1012.24
2018-01-14T13:37:27.841Z,1012.27
2018-01-14T13:38:37.303Z,1012.2
2018-01-14T13:39:46.514Z,1012.2
2018-01-14T13:40:56.242Z,1012.19
2018-01-14T13:42:05.974Z,1012.26
2018-01-14T13:43:15.439Z,1012.27
2018-01-14T13:44:25.185Z,1012.23
2018-01-14T13:45:34.664Z,1012.23
2018-01-14T13:46:44.668Z,1012.21
2018-01-14T13:47:54.446Z,1012.25
2018-01-14T13:49:04.201Z,1012.29
2018-01-14T13:50:14.221Z,1012.26
2018-01-14T13:51:23.692Z,1012.28
2018-01-14T13:52:33.700Z,1012.28
2018-01-14T13:53:43.433Z,1012.26
2018-01-14T13:54:53.454Z,1012.28
2018-01-14T13:56:02.941Z,1012.26
2018-01-14T13:57:12.420Z,1012.28
2018-01-14T13:58:21.906Z,1012.27
2018-01-14T13:59:31.105Z,1012.14
2018-01-14T14:00:40.566Z,1012.26
2018-01-14T14:01:50.043Z,1012.24
2018-01-14T14:02:59.766Z,1012.26
2018-01-14T14:04:09.250Z,1012.18